sensor_id;sensor_type;location;lat;lon;timestamp;pressure;altitude;pressure_sealevel;temperature;humidity
48216;BME280;34005;48.844;10.098;2023-01-26T00:02:07;97178.41;;;1.35;77.27
48216;BME280;34005;48.844;10.098;2023-01-26T00:04:35;97172.47;;;1.34;76.50
48216;BME280;34005;48.844;10.098;2023-01-26T00:07:03;97171.03;;;1.30;75.74
48216;BME280;34005;48.844;10.098;2023-01-26T00:09:30;97168.69;;;1.27;76.07
48216;BME280;34005;48.844;10.098;2023-01-26T00:11:58;97169.63;;;1.26;75.86
48216;BME280;34005;48.844;10.098;2023-01-26T00:14:26;97166.47;;;1.22;75.92
48216;BME280;34005;48.844;10.098;2023-01-26T00:17:17;97161.63;;;1.18;75.54
48216;BME280;34005;48.844;10.098;2023-01-26T00:19:52;97158.56;;;1.13;75.77
48216;BME280;34005;48.844;10.098;2023-01-26T00:22:21;97155.69;;;1.17;76.98
48216;BME280;34005;48.844;10.098;2023-01-26T00:24:49;97148.47;;;1.22;76.78
48216;BME280;34005;48.844;10.098;2023-01-26T00:27:16;97143.34;;;1.22;76.60
48216;BME280;34005;48.844;10.098;2023-01-26T00:29:44;97140.78;;;1.22;76.89
48216;BME280;34005;48.844;10.098;2023-01-26T00:32:12;97137.25;;;1.23;77.00
48216;BME280;34005;48.844;10.098;2023-01-26T00:34:41;97133.88;;;1.23;76.81
48216;BME280;34005;48.844;10.098;2023-01-26T00:37:09;97133.63;;;1.26;77.79
48216;BME280;34005;48.844;10.098;2023-01-26T00:39:37;97134.69;;;1.23;77.14
48216;BME280;34005;48.844;10.098;2023-01-26T00:42:04;97134.69;;;1.23;77.05
48216;BME280;34005;48.844;10.098;2023-01-26T00:44:40;97139.81;;;1.23;76.09
48216;BME280;34005;48.844;10.098;2023-01-26T00:47:09;97126.03;;;1.24;76.75
48216;BME280;34005;48.844;10.098;2023-01-26T00:49:38;97120.06;;;1.24;75.90
48216;BME280;34005;48.844;10.098;2023-01-26T00:52:07;97113.19;;;1.24;76.93
48216;BME280;34005;48.844;10.098;2023-01-26T00:54:35;97114.84;;;1.26;76.84
48216;BME280;34005;48.844;10.098;2023-01-26T00:57:03;97112.50;;;1.22;76.33
48216;BME280;34005;48.844;10.098;2023-01-26T00:59:31;97107.34;;;1.22;76.25
48216;BME280;34005;48.844;10.098;2023-01-26T01:01:58;97121.13;;;1.21;75.67
48216;BME280;34005;48.844;10.098;2023-01-26T01:04:28;97112.50;;;1.22;76.38
48216;BME280;34005;48.844;10.098;2023-01-26T01:06:56;97111.56;;;1.23;76.57
48216;BME280;34005;48.844;10.098;2023-01-26T01:09:25;97107.56;;;1.19;76.49
48216;BME280;34005;48.844;10.098;2023-01-26T01:11:53;97110.84;;;1.21;77.04
48216;BME280;34005;48.844;10.098;2023-01-26T01:14:20;97104.66;;;1.24;77.05
48216;BME280;34005;48.844;10.098;2023-01-26T01:16:48;97100.56;;;1.21;76.88
48216;BME280;34005;48.844;10.098;2023-01-26T01:19:16;97093.31;;;1.27;78.13
48216;BME280;34005;48.844;10.098;2023-01-26T01:21:44;97091.84;;;1.35;79.03
48216;BME280;34005;48.844;10.098;2023-01-26T01:24:12;97089.78;;;1.40;78.37
48216;BME280;34005;48.844;10.098;2023-01-26T01:26:41;97091.63;;;1.38;77.58
48216;BME280;34005;48.844;10.098;2023-01-26T01:29:11;97081.94;;;1.42;78.59
48216;BME280;34005;48.844;10.098;2023-01-26T01:31:39;97082.53;;;1.46;77.91
48216;BME280;34005;48.844;10.098;2023-01-26T01:34:08;97082.53;;;1.46;77.32
48216;BME280;34005;48.844;10.098;2023-01-26T01:36:36;97083.59;;;1.43;77.77
48216;BME280;34005;48.844;10.098;2023-01-26T01:39:04;97074.22;;;1.42;78.04
48216;BME280;34005;48.844;10.098;2023-01-26T01:41:31;97075.41;;;1.38;77.73
48216;BME280;34005;48.844;10.098;2023-01-26T01:44:15;97071.41;;;1.34;76.49
48216;BME280;34005;48.844;10.098;2023-01-26T01:46:46;97066.13;;;1.35;78.52
48216;BME280;34005;48.844;10.098;2023-01-26T01:49:18;97067.44;;;1.41;78.32
48216;BME280;34005;48.844;10.098;2023-01-26T01:51:50;97058.69;;;1.43;78.14
48216;BME280;34005;48.844;10.098;2023-01-26T01:54:23;97059.28;;;1.47;78.16
48216;BME280;34005;48.844;10.098;2023-01-26T01:56:55;97066.06;;;1.48;78.30
48216;BME280;34005;48.844;10.098;2023-01-26T01:59:25;97053.19;;;1.48;77.33
48216;BME280;34005;48.844;10.098;2023-01-26T02:01:54;97052.72;;;1.43;77.01
48216;BME280;34005;48.844;10.098;2023-01-26T02:04:23;97056.47;;;1.39;78.22
48216;BME280;34005;48.844;10.098;2023-01-26T02:06:54;97064.16;;;1.39;77.81
48216;BME280;34005;48.844;10.098;2023-01-26T02:09:29;97058.31;;;1.37;77.41
48216;BME280;34005;48.844;10.098;2023-01-26T02:12:17;97055.84;;;1.35;78.52
48216;BME280;34005;48.844;10.098;2023-01-26T02:14:47;97048.84;;;1.37;78.07
48216;BME280;34005;48.844;10.098;2023-01-26T02:17:16;97033.66;;;1.34;77.36
48216;BME280;34005;48.844;10.098;2023-01-26T02:19:48;97036.69;;;1.28;76.88
48216;BME280;34005;48.844;10.098;2023-01-26T02:22:27;97030.50;;;1.31;78.39
48216;BME280;34005;48.844;10.098;2023-01-26T02:25:06;97019.75;;;1.37;79.23
48216;BME280;34005;48.844;10.098;2023-01-26T02:27:40;97017.19;;;1.37;78.66
48216;BME280;34005;48.844;10.098;2023-01-26T02:30:10;97014.88;;;1.34;78.42
48216;BME280;34005;48.844;10.098;2023-01-26T02:32:38;97010.63;;;1.33;78.20
48216;BME280;34005;48.844;10.098;2023-01-26T02:35:07;97008.88;;;1.33;78.73
48216;BME280;34005;48.844;10.098;2023-01-26T02:37:34;97014.03;;;1.33;78.00
48216;BME280;34005;48.844;10.098;2023-01-26T02:40:06;97018.81;;;1.27;77.77
48216;BME280;34005;48.844;10.098;2023-01-26T02:42:37;97011.56;;;1.20;78.00
48216;BME280;34005;48.844;10.098;2023-01-26T02:45:06;97022.06;;;1.17;78.72
48216;BME280;34005;48.844;10.098;2023-01-26T02:47:34;97021.25;;;1.17;79.09
48216;BME280;34005;48.844;10.098;2023-01-26T02:50:03;97020.44;;;1.16;78.79
48216;BME280;34005;48.844;10.098;2023-01-26T02:52:29;97019.28;;;1.20;79.34
48216;BME280;34005;48.844;10.098;2023-01-26T02:54:57;97014.59;;;1.26;79.60
48216;BME280;34005;48.844;10.098;2023-01-26T02:57:43;97002.66;;;1.24;78.67
48216;BME280;34005;48.844;10.098;2023-01-26T03:00:15;97010.06;;;1.29;78.86
48216;BME280;34005;48.844;10.098;2023-01-26T03:02:44;96995.66;;;1.27;78.97
48216;BME280;34005;48.844;10.098;2023-01-26T03:05:13;96999.28;;;1.24;78.62
48216;BME280;34005;48.844;10.098;2023-01-26T03:07:40;97012.13;;;1.24;78.93
48216;BME280;34005;48.844;10.098;2023-01-26T03:10:09;97003.38;;;1.27;79.22
48216;BME280;34005;48.844;10.098;2023-01-26T03:12:38;97002.47;;;1.28;79.02
48216;BME280;34005;48.844;10.098;2023-01-26T03:15:07;97005.94;;;1.27;78.80
48216;BME280;34005;48.844;10.098;2023-01-26T03:17:59;96997.88;;;1.20;76.37
48216;BME280;34005;48.844;10.098;2023-01-26T03:20:59;97003.16;;;1.18;77.19
48216;BME280;34005;48.844;10.098;2023-01-26T03:23:44;96992.38;;;1.13;76.77
48216;BME280;34005;48.844;10.098;2023-01-26T03:26:30;96997.84;;;1.09;77.19
48216;BME280;34005;48.844;10.098;2023-01-26T03:29:15;97006.50;;;1.08;77.46
48216;BME280;34005;48.844;10.098;2023-01-26T03:31:43;97011.66;;;1.08;78.16
48216;BME280;34005;48.844;10.098;2023-01-26T03:34:12;97005.22;;;1.13;78.13
48216;BME280;34005;48.844;10.098;2023-01-26T03:36:40;97007.09;;;1.11;78.12
48216;BME280;34005;48.844;10.098;2023-01-26T03:39:08;97007.31;;;1.08;78.12
48216;BME280;34005;48.844;10.098;2023-01-26T03:41:56;97005.00;;;1.05;77.90
48216;BME280;34005;48.844;10.098;2023-01-26T03:44:41;97004.28;;;1.03;78.51
48216;BME280;34005;48.844;10.098;2023-01-26T03:47:26;96999.34;;;1.00;78.36
48216;BME280;34005;48.844;10.098;2023-01-26T03:50:13;96997.72;;;0.99;77.56
48216;BME280;34005;48.844;10.098;2023-01-26T03:52:58;96993.28;;;1.01;77.39
48216;BME280;34005;48.844;10.098;2023-01-26T03:55:44;96985.00;;;1.09;78.22
48216;BME280;34005;48.844;10.098;2023-01-26T03:58:29;96989.81;;;1.13;78.71
48216;BME280;34005;48.844;10.098;2023-01-26T04:00:57;96994.72;;;1.16;79.09
48216;BME280;34005;48.844;10.098;2023-01-26T04:03:24;96995.91;;;1.23;79.75
48216;BME280;34005;48.844;10.098;2023-01-26T04:06:11;96988.66;;;1.29;79.43
48216;BME280;34005;48.844;10.098;2023-01-26T04:08:56;96978.28;;;1.30;79.62
48216;BME280;34005;48.844;10.098;2023-01-26T04:11:23;96970.47;;;1.32;79.57
48216;BME280;34005;48.844;10.098;2023-01-26T04:13:51;96977.22;;;1.33;79.48
48216;BME280;34005;48.844;10.098;2023-01-26T04:16:36;96969.75;;;1.30;79.07
48216;BME280;34005;48.844;10.098;2023-01-26T04:19:21;96969.25;;;1.24;78.11
48216;BME280;34005;48.844;10.098;2023-01-26T04:22:08;96966.94;;;1.21;78.67
48216;BME280;34005;48.844;10.098;2023-01-26T04:24:35;96973.22;;;1.17;78.71
48216;BME280;34005;48.844;10.098;2023-01-26T04:27:03;96972.53;;;1.15;78.45
48216;BME280;34005;48.844;10.098;2023-01-26T04:29:30;96982.69;;;1.17;78.41
48216;BME280;34005;48.844;10.098;2023-01-26T04:31:59;96983.03;;;1.12;78.27
48216;BME280;34005;48.844;10.098;2023-01-26T04:34:26;96977.91;;;1.12;78.91
48216;BME280;34005;48.844;10.098;2023-01-26T04:36:54;96972.06;;;1.10;78.26
48216;BME280;34005;48.844;10.098;2023-01-26T04:39:23;96978.00;;;1.11;79.00
48216;BME280;34005;48.844;10.098;2023-01-26T04:41:50;96972.53;;;1.15;78.96
48216;BME280;34005;48.844;10.098;2023-01-26T04:44:18;96982.69;;;1.17;78.82
48216;BME280;34005;48.844;10.098;2023-01-26T04:46:45;96978.97;;;1.21;79.39
48216;BME280;34005;48.844;10.098;2023-01-26T04:49:14;96970.22;;;1.23;78.19
48216;BME280;34005;48.844;10.098;2023-01-26T04:51:41;96970.91;;;1.26;78.08
48216;BME280;34005;48.844;10.098;2023-01-26T04:54:09;96964.63;;;1.30;78.58
48216;BME280;34005;48.844;10.098;2023-01-26T04:56:38;96964.72;;;1.28;77.19
48216;BME280;34005;48.844;10.098;2023-01-26T04:59:06;96971.25;;;1.21;77.09
48216;BME280;34005;48.844;10.098;2023-01-26T05:01:34;96968.81;;;1.19;77.17
48216;BME280;34005;48.844;10.098;2023-01-26T05:04:03;96958.63;;;1.18;78.05
48216;BME280;34005;48.844;10.098;2023-01-26T05:06:31;96955.13;;;1.19;78.29
48216;BME280;34005;48.844;10.098;2023-01-26T05:08:59;96958.53;;;1.19;76.90
48216;BME280;34005;48.844;10.098;2023-01-26T05:11:26;96955.34;;;1.16;76.31
48216;BME280;34005;48.844;10.098;2023-01-26T05:13:55;96964.00;;;1.15;76.45
48216;BME280;34005;48.844;10.098;2023-01-26T05:16:23;96966.47;;;1.16;76.33
48216;BME280;34005;48.844;10.098;2023-01-26T05:18:52;96970.66;;;1.17;76.96
48216;BME280;34005;48.844;10.098;2023-01-26T05:21:19;96965.31;;;1.20;78.29
48216;BME280;34005;48.844;10.098;2023-01-26T05:23:49;96963.22;;;1.26;78.83
48216;BME280;34005;48.844;10.098;2023-01-26T05:26:17;96956.91;;;1.30;79.15
48216;BME280;34005;48.844;10.098;2023-01-26T05:28:45;96961.94;;;1.31;77.63
48216;BME280;34005;48.844;10.098;2023-01-26T05:31:14;96962.16;;;1.28;76.94
48216;BME280;34005;48.844;10.098;2023-01-26T05:33:41;96960.28;;;1.30;76.62
48216;BME280;34005;48.844;10.098;2023-01-26T05:36:09;96965.19;;;1.33;77.56
48216;BME280;34005;48.844;10.098;2023-01-26T05:38:36;96966.94;;;1.33;76.30
48216;BME280;34005;48.844;10.098;2023-01-26T05:41:05;96964.81;;;1.27;74.61
48216;BME280;34005;48.844;10.098;2023-01-26T05:43:33;96960.19;;;1.20;74.49
48216;BME280;34005;48.844;10.098;2023-01-26T05:46:01;96969.84;;;1.17;76.29
48216;BME280;34005;48.844;10.098;2023-01-26T05:48:29;96964.59;;;1.18;77.27
48216;BME280;34005;48.844;10.098;2023-01-26T05:50:57;96975.47;;;1.22;77.76
48216;BME280;34005;48.844;10.098;2023-01-26T05:53:25;96980.50;;;1.23;77.38
48216;BME280;34005;48.844;10.098;2023-01-26T05:55:53;96980.50;;;1.23;76.36
48216;BME280;34005;48.844;10.098;2023-01-26T05:58:20;96976.28;;;1.22;76.05
48216;BME280;34005;48.844;10.098;2023-01-26T06:00:48;96975.81;;;1.17;75.98
48216;BME280;34005;48.844;10.098;2023-01-26T06:03:16;96978.38;;;1.17;77.37
48216;BME280;34005;48.844;10.098;2023-01-26T06:05:51;96979.06;;;1.19;76.90
48216;BME280;34005;48.844;10.098;2023-01-26T06:08:18;96980.50;;;1.23;77.00
48216;BME280;34005;48.844;10.098;2023-01-26T06:10:46;96982.81;;;1.27;77.35
48216;BME280;34005;48.844;10.098;2023-01-26T06:13:14;96989.03;;;1.35;77.80
48216;BME280;34005;48.844;10.098;2023-01-26T06:15:41;96982.88;;;1.38;76.84
48216;BME280;34005;48.844;10.098;2023-01-26T06:18:09;96986.59;;;1.34;75.92
48216;BME280;34005;48.844;10.098;2023-01-26T06:20:36;96990.31;;;1.30;76.33
48216;BME280;34005;48.844;10.098;2023-01-26T06:23:05;96993.09;;;1.27;76.64
48216;BME280;34005;48.844;10.098;2023-01-26T06:25:36;96986.56;;;1.22;75.66
48216;BME280;34005;48.844;10.098;2023-01-26T06:28:05;96994.84;;;1.15;75.41
48216;BME280;34005;48.844;10.098;2023-01-26T06:30:33;96989.69;;;1.03;75.94
48216;BME280;34005;48.844;10.098;2023-01-26T06:33:01;96988.59;;;0.95;75.94
48216;BME280;34005;48.844;10.098;2023-01-26T06:35:28;96988.69;;;0.93;75.90
48216;BME280;34005;48.844;10.098;2023-01-26T06:37:56;96989.66;;;0.92;75.65
48216;BME280;34005;48.844;10.098;2023-01-26T06:40:24;96993.13;;;0.91;75.66
48216;BME280;34005;48.844;10.098;2023-01-26T06:42:52;96998.88;;;0.95;76.64
48216;BME280;34005;48.844;10.098;2023-01-26T06:45:20;96989.50;;;0.94;75.89
48216;BME280;34005;48.844;10.098;2023-01-26T06:47:48;96984.34;;;0.82;74.75
48216;BME280;34005;48.844;10.098;2023-01-26T06:50:18;96981.84;;;0.70;74.54
48216;BME280;34005;48.844;10.098;2023-01-26T06:52:46;96977.38;;;0.60;74.90
48216;BME280;34005;48.844;10.098;2023-01-26T06:55:20;96975.38;;;0.53;74.77
48216;BME280;34005;48.844;10.098;2023-01-26T06:57:50;96986.88;;;0.47;75.12
48216;BME280;34005;48.844;10.098;2023-01-26T07:00:18;96977.88;;;0.41;74.91
48216;BME280;34005;48.844;10.098;2023-01-26T07:02:46;96980.34;;;0.43;75.76
48216;BME280;34005;48.844;10.098;2023-01-26T07:05:13;96980.00;;;0.48;76.36
48216;BME280;34005;48.844;10.098;2023-01-26T07:07:41;96978.84;;;0.52;76.12
48216;BME280;34005;48.844;10.098;2023-01-26T07:10:09;96979.38;;;0.57;76.26
48216;BME280;34005;48.844;10.098;2023-01-26T07:12:39;96978.91;;;0.63;76.28
48216;BME280;34005;48.844;10.098;2023-01-26T07:15:09;96979.41;;;0.68;77.21
48216;BME280;34005;48.844;10.098;2023-01-26T07:17:37;96983.16;;;0.75;77.63
48216;BME280;34005;48.844;10.098;2023-01-26T07:20:05;96987.97;;;0.80;77.49
48216;BME280;34005;48.844;10.098;2023-01-26T07:22:33;96986.72;;;0.86;77.93
48216;BME280;34005;48.844;10.098;2023-01-26T07:25:01;96979.25;;;0.94;78.20
48216;BME280;34005;48.844;10.098;2023-01-26T07:27:29;96981.38;;;1.00;77.72
48216;BME280;34005;48.844;10.098;2023-01-26T07:29:56;96975.06;;;1.04;78.05
48216;BME280;34005;48.844;10.098;2023-01-26T07:32:25;96976.50;;;1.08;78.43
48216;BME280;34005;48.844;10.098;2023-01-26T07:34:52;96980.47;;;1.12;78.25
48216;BME280;34005;48.844;10.098;2023-01-26T07:37:20;96977.78;;;1.14;77.59
48216;BME280;34005;48.844;10.098;2023-01-26T07:39:47;96976.16;;;1.13;76.40
48216;BME280;34005;48.844;10.098;2023-01-26T07:42:15;96969.25;;;1.13;76.45
48216;BME280;34005;48.844;10.098;2023-01-26T07:44:43;96972.53;;;1.15;76.91
48216;BME280;34005;48.844;10.098;2023-01-26T07:47:11;96972.19;;;1.20;77.75
48216;BME280;34005;48.844;10.098;2023-01-26T07:49:41;96969.03;;;1.16;75.42
48216;BME280;34005;48.844;10.098;2023-01-26T07:52:08;96971.09;;;1.11;75.14
48216;BME280;34005;48.844;10.098;2023-01-26T07:54:36;96968.53;;;1.11;75.23
48216;BME280;34005;48.844;10.098;2023-01-26T07:57:03;96965.06;;;1.12;74.79
48216;BME280;34005;48.844;10.098;2023-01-26T07:59:33;96967.63;;;1.12;74.43
48216;BME280;34005;48.844;10.098;2023-01-26T08:02:01;96965.25;;;1.09;74.34
48216;BME280;34005;48.844;10.098;2023-01-26T08:04:28;96962.94;;;1.06;74.38
48216;BME280;34005;48.844;10.098;2023-01-26T08:06:57;96962.13;;;1.06;74.76
48216;BME280;34005;48.844;10.098;2023-01-26T08:09:25;96956.84;;;1.07;75.25
48216;BME280;34005;48.844;10.098;2023-01-26T08:11:55;96960.25;;;1.08;75.67
48216;BME280;34005;48.844;10.098;2023-01-26T08:14:22;96955.22;;;1.06;75.02
48216;BME280;34005;48.844;10.098;2023-01-26T08:16:50;96958.59;;;1.07;73.65
48216;BME280;34005;48.844;10.098;2023-01-26T08:19:18;96955.47;;;1.03;73.40
48216;BME280;34005;48.844;10.098;2023-01-26T08:21:45;96958.03;;;1.03;74.92
48216;BME280;34005;48.844;10.098;2023-01-26T08:24:14;96952.41;;;1.09;76.03
48216;BME280;34005;48.844;10.098;2023-01-26T08:26:42;96960.63;;;1.14;76.56
48216;BME280;34005;48.844;10.098;2023-01-26T08:29:09;96951.75;;;1.18;76.58
48216;BME280;34005;48.844;10.098;2023-01-26T08:31:37;96945.47;;;1.22;77.26
48216;BME280;34005;48.844;10.098;2023-01-26T08:34:04;96944.50;;;1.23;75.53
48216;BME280;34005;48.844;10.098;2023-01-26T08:36:32;96942.88;;;1.22;75.13
48216;BME280;34005;48.844;10.098;2023-01-26T08:38:59;96944.50;;;1.23;74.50
48216;BME280;34005;48.844;10.098;2023-01-26T08:41:29;96954.56;;;1.27;74.29
48216;BME280;34005;48.844;10.098;2023-01-26T08:43:58;96952.59;;;1.30;75.45
48216;BME280;34005;48.844;10.098;2023-01-26T08:46:26;96954.91;;;1.33;76.40
48216;BME280;34005;48.844;10.098;2023-01-26T08:48:53;96952.22;;;1.35;76.00
48216;BME280;34005;48.844;10.098;2023-01-26T08:51:21;96943.59;;;1.36;76.41
48216;BME280;34005;48.844;10.098;2023-01-26T08:53:48;96942.41;;;1.40;77.08
48216;BME280;34005;48.844;10.098;2023-01-26T08:56:16;96941.38;;;1.42;76.92
48216;BME280;34005;48.844;10.098;2023-01-26T08:58:46;96937.97;;;1.42;77.03
48216;BME280;34005;48.844;10.098;2023-01-26T09:01:15;96952.94;;;1.37;75.31
48216;BME280;34005;48.844;10.098;2023-01-26T09:03:43;96945.47;;;1.34;76.18
48216;BME280;34005;48.844;10.098;2023-01-26T09:06:12;96944.31;;;1.38;77.54
48216;BME280;34005;48.844;10.098;2023-01-26T09:08:41;96943.97;;;1.42;77.33
48216;BME280;34005;48.844;10.098;2023-01-26T09:11:08;96942.91;;;1.45;77.96
48216;BME280;34005;48.844;10.098;2023-01-26T09:13:36;96941.03;;;1.47;77.55
48216;BME280;34005;48.844;10.098;2023-01-26T09:16:11;96938.91;;;1.52;77.98
48216;BME280;34005;48.844;10.098;2023-01-26T09:18:39;96937.28;;;1.51;76.74
48216;BME280;34005;48.844;10.098;2023-01-26T09:21:08;96934.47;;;1.43;74.89
48216;BME280;34005;48.844;10.098;2023-01-26T09:23:36;96940.91;;;1.37;75.21
48216;BME280;34005;48.844;10.098;2023-01-26T09:26:04;96938.69;;;1.33;74.94
48216;BME280;34005;48.844;10.098;2023-01-26T09:28:31;96937.41;;;1.27;74.68
48216;BME280;34005;48.844;10.098;2023-01-26T09:31:02;96941.00;;;1.24;73.80
48216;BME280;34005;48.844;10.098;2023-01-26T09:33:32;96930.50;;;1.28;76.19
48216;BME280;34005;48.844;10.098;2023-01-26T09:36:03;96930.97;;;1.33;75.38
48216;BME280;34005;48.844;10.098;2023-01-26T09:38:31;96936.09;;;1.33;74.81
48216;BME280;34005;48.844;10.098;2023-01-26T09:41:04;96941.03;;;1.36;75.79
48216;BME280;34005;48.844;10.098;2023-01-26T09:43:37;96943.34;;;1.39;74.32
48216;BME280;34005;48.844;10.098;2023-01-26T09:46:17;96945.13;;;1.38;74.85
48216;BME280;34005;48.844;10.098;2023-01-26T09:48:57;96950.59;;;1.34;73.50
48216;BME280;34005;48.844;10.098;2023-01-26T09:51:31;96946.03;;;1.37;76.52
48216;BME280;34005;48.844;10.098;2023-01-26T09:54:04;96943.13;;;1.42;76.83
48216;BME280;34005;48.844;10.098;2023-01-26T09:56:32;96943.72;;;1.46;76.88
48216;BME280;34005;48.844;10.098;2023-01-26T09:59:03;96936.69;;;1.48;75.90
48216;BME280;34005;48.844;10.098;2023-01-26T10:01:37;96943.59;;;1.47;73.97
48216;BME280;34005;48.844;10.098;2023-01-26T10:04:16;96938.56;;;1.46;76.71
48216;BME280;34005;48.844;10.098;2023-01-26T10:06:51;96946.38;;;1.44;74.86
48216;BME280;34005;48.844;10.098;2023-01-26T10:09:21;96943.34;;;1.39;74.62
48216;BME280;34005;48.844;10.098;2023-01-26T10:11:52;96944.75;;;1.32;75.56
48216;BME280;34005;48.844;10.098;2023-01-26T10:14:29;96945.94;;;1.28;74.38
48216;BME280;34005;48.844;10.098;2023-01-26T10:16:59;96946.38;;;1.33;76.52
48216;BME280;34005;48.844;10.098;2023-01-26T10:19:33;96956.91;;;1.41;77.17
48216;BME280;34005;48.844;10.098;2023-01-26T10:22:05;96954.81;;;1.46;77.06
48216;BME280;34005;48.844;10.098;2023-01-26T10:24:34;96952.38;;;1.44;76.69
48216;BME280;34005;48.844;10.098;2023-01-26T10:27:05;96950.13;;;1.40;77.22
48216;BME280;34005;48.844;10.098;2023-01-26T10:29:39;96953.88;;;1.36;76.19
48216;BME280;34005;48.844;10.098;2023-01-26T10:32:12;96953.38;;;1.31;74.57
48216;BME280;34005;48.844;10.098;2023-01-26T10:34:43;96946.84;;;1.27;74.37
48216;BME280;34005;48.844;10.098;2023-01-26T10:37:19;96945.94;;;1.28;74.93
48216;BME280;34005;48.844;10.098;2023-01-26T10:40:05;96952.13;;;1.25;73.46
48216;BME280;34005;48.844;10.098;2023-01-26T10:42:36;96948.25;;;1.19;74.97
48216;BME280;34005;48.844;10.098;2023-01-26T10:45:06;96950.00;;;1.19;76.45
48216;BME280;34005;48.844;10.098;2023-01-26T10:48:01;96950.72;;;1.21;75.12
48216;BME280;34005;48.844;10.098;2023-01-26T10:50:31;96949.19;;;1.18;75.00
48216;BME280;34005;48.844;10.098;2023-01-26T10:53:00;96943.09;;;1.19;75.33
48216;BME280;34005;48.844;10.098;2023-01-26T10:55:29;96943.34;;;1.16;75.67
48216;BME280;34005;48.844;10.098;2023-01-26T10:57:57;96948.69;;;1.13;75.36
48216;BME280;34005;48.844;10.098;2023-01-26T11:00:27;96943.78;;;1.10;75.00
48216;BME280;34005;48.844;10.098;2023-01-26T11:03:03;96951.59;;;1.09;74.12
48216;BME280;34005;48.844;10.098;2023-01-26T11:05:32;96942.13;;;1.09;74.24
48216;BME280;34005;48.844;10.098;2023-01-26T11:08:00;96943.09;;;1.08;73.76
48216;BME280;34005;48.844;10.098;2023-01-26T11:10:30;96945.66;;;1.08;73.82
48216;BME280;34005;48.844;10.098;2023-01-26T11:13:07;96943.09;;;1.08;73.52
48216;BME280;34005;48.844;10.098;2023-01-26T11:15:39;96941.69;;;1.04;73.60
48216;BME280;34005;48.844;10.098;2023-01-26T11:18:19;96943.66;;;1.00;73.38
48216;BME280;34005;48.844;10.098;2023-01-26T11:28:31;96930.91;;;0.88;73.00
48216;BME280;34005;48.844;10.098;2023-01-26T11:31:18;96925.19;;;0.84;73.88
48216;BME280;34005;48.844;10.098;2023-01-26T11:34:36;96916.06;;;0.80;73.28
48216;BME280;34005;48.844;10.098;2023-01-26T11:37:38;96919.09;;;0.85;76.08
48216;BME280;34005;48.844;10.098;2023-01-26T11:48:37;96897.53;;;0.88;72.82
48216;BME280;34005;48.844;10.098;2023-01-26T11:51:43;96902.31;;;0.81;71.97
48216;BME280;34005;48.844;10.098;2023-01-26T11:59:09;96899.38;;;0.86;73.19
48216;BME280;34005;48.844;10.098;2023-01-26T12:29:06;96872.88;;;0.85;72.70
48216;BME280;34005;48.844;10.098;2023-01-26T12:31:52;96859.91;;;0.87;72.12
48216;BME280;34005;48.844;10.098;2023-01-26T12:34:41;96851.31;;;0.88;72.33
48216;BME280;34005;48.844;10.098;2023-01-26T12:37:26;96844.75;;;0.84;71.50
48216;BME280;34005;48.844;10.098;2023-01-26T12:40:05;96843.09;;;0.82;71.67
48216;BME280;34005;48.844;10.098;2023-01-26T12:42:42;96838.78;;;0.83;71.52
48216;BME280;34005;48.844;10.098;2023-01-26T12:45:15;96836.44;;;0.80;71.71
48216;BME280;34005;48.844;10.098;2023-01-26T12:47:49;96838.22;;;0.79;71.41
48216;BME280;34005;48.844;10.098;2023-01-26T12:50:24;96834.84;;;0.79;72.85
48216;BME280;34005;48.844;10.098;2023-01-26T12:52:56;96849.19;;;0.81;72.29
48216;BME280;34005;48.844;10.098;2023-01-26T12:55:31;96844.25;;;0.78;71.46
48216;BME280;34005;48.844;10.098;2023-01-26T12:58:10;96837.72;;;0.74;71.21
48216;BME280;34005;48.844;10.098;2023-01-26T13:00:50;96833.53;;;0.73;71.91
48216;BME280;34005;48.844;10.098;2023-01-26T13:03:21;96832.72;;;0.73;71.91
48216;BME280;34005;48.844;10.098;2023-01-26T13:05:56;96827.44;;;0.74;71.76
48216;BME280;34005;48.844;10.098;2023-01-26T13:08:48;96835.84;;;0.76;72.21
48216;BME280;34005;48.844;10.098;2023-01-26T13:11:40;96830.41;;;0.81;72.95
48216;BME280;34005;48.844;10.098;2023-01-26T13:14:32;96831.91;;;0.84;71.67
48216;BME280;34005;48.844;10.098;2023-01-26T13:17:41;96826.78;;;0.84;71.76
48216;BME280;34005;48.844;10.098;2023-01-26T13:23:37;96831.78;;;0.85;71.27
48216;BME280;34005;48.844;10.098;2023-01-26T13:26:16;96830.97;;;0.85;71.68
48216;BME280;34005;48.844;10.098;2023-01-26T13:28:45;96821.63;;;0.84;71.72
48216;BME280;34005;48.844;10.098;2023-01-26T13:31:31;96818.03;;;0.86;73.65
48216;BME280;34005;48.844;10.098;2023-01-26T13:34:27;96818.38;;;0.93;74.65
48216;BME280;34005;48.844;10.098;2023-01-26T13:37:03;96830.97;;;0.96;73.74
48216;BME280;34005;48.844;10.098;2023-01-26T13:39:35;96831.81;;;0.96;72.68
48216;BME280;34005;48.844;10.098;2023-01-26T13:42:23;96832.84;;;0.94;71.65
48216;BME280;34005;48.844;10.098;2023-01-26T13:44:57;96829.09;;;0.87;71.88
48216;BME280;34005;48.844;10.098;2023-01-26T13:47:32;96825.81;;;0.85;72.67
48216;BME280;34005;48.844;10.098;2023-01-26T13:50:21;96834.34;;;0.85;72.35
48216;BME280;34005;48.844;10.098;2023-01-26T13:52:50;96831.91;;;0.84;72.00
48216;BME280;34005;48.844;10.098;2023-01-26T13:55:22;96830.50;;;0.79;71.71
48216;BME280;34005;48.844;10.098;2023-01-26T13:58:09;96824.66;;;0.77;73.00
48216;BME280;34005;48.844;10.098;2023-01-26T14:00:41;96833.06;;;0.79;72.17
48216;BME280;34005;48.844;10.098;2023-01-26T14:03:20;96834.94;;;0.77;71.17
48216;BME280;34005;48.844;10.098;2023-01-26T14:05:55;96838.56;;;0.75;71.62
48216;BME280;34005;48.844;10.098;2023-01-26T14:08:26;96839.84;;;0.80;71.94
48216;BME280;34005;48.844;10.098;2023-01-26T14:10:55;96842.28;;;0.82;71.97
48216;BME280;34005;48.844;10.098;2023-01-26T14:13:31;96837.16;;;0.82;71.59
48216;BME280;34005;48.844;10.098;2023-01-26T14:16:02;96836.09;;;0.85;71.93
48216;BME280;34005;48.844;10.098;2023-01-26T14:22:15;96835.06;;;0.87;71.27